Time;durP1;ratioP1;P1;durP2;ratioP2;P2;SDS_P1;SDS_P2;PMS_P1;PMS_P2;Temp;Humidity;BMP_temperature;BMP_pressure;BME280_temperature;BME280_humidity;BME280_pressure;Samples;Min_cycle;Max_cycle;Signal;HPM_P1;HPM_P2
2021/03/05 00:01:41;;;;;;;26.87;11.60;;;6.50;66.80;;;;;;1712493;83;21316;-75
2021/03/05 00:04:13;;;;;;;24.60;12.58;;;6.50;67.60;;;;;;1700467;84;21103;-72
2021/03/05 00:06:41;;;;;;;23.32;11.05;;;6.50;65.20;;;;;;1696342;84;21150;-73
2021/03/05 00:09:14;;;;;;;25.52;12.58;;;6.50;63.50;;;;;;1703778;84;21143;-71
2021/03/05 00:11:42;;;;;;;26.30;12.58;;;6.60;63.50;;;;;;1706523;83;21658;-73
2021/03/05 00:14:14;;;;;;;22.30;11.10;;;6.50;62.80;;;;;;1705101;83;21105;-72
2021/03/05 00:16:44;;;;;;;29.63;14.13;;;6.60;64.00;;;;;;1703965;83;21128;-72
2021/03/05 00:19:13;;;;;;;28.87;15.38;;;6.60;63.20;;;;;;1705759;83;21172;-72
2021/03/05 00:21:48;;;;;;;31.25;15.83;;;6.70;63.00;;;;;;1703472;83;21568;-73
2021/03/05 00:24:16;;;;;;;34.40;16.52;;;6.70;62.90;;;;;;1705152;83;21575;-72
2021/03/05 00:26:45;;;;;;;23.05;11.45;;;6.80;62.50;;;;;;1705326;82;21107;-73
2021/03/05 00:29:13;;;;;;;23.87;12.45;;;6.90;62.40;;;;;;1698696;82;21165;-72
2021/03/05 00:31:42;;;;;;;23.90;11.50;;;6.90;63.70;;;;;;1695014;83;21173;-70
2021/03/05 00:34:10;;;;;;;25.25;12.25;;;6.90;64.20;;;;;;1694925;85;21328;-70
2021/03/05 00:36:38;;;;;;;23.65;11.43;;;6.90;63.00;;;;;;1716599;82;21200;-71
2021/03/05 00:39:08;;;;;;;23.57;11.53;;;6.90;62.90;;;;;;1725386;83;21164;-71
2021/03/05 00:41:36;;;;;;;21.27;11.05;;;6.80;63.00;;;;;;1725244;83;21176;-71
2021/03/05 00:44:05;;;;;;;18.87;9.53;;;6.80;63.70;;;;;;1725525;83;21148;-69
2021/03/05 00:46:34;;;;;;;18.98;10.53;;;6.80;63.30;;;;;;1725462;83;21331;-71
2021/03/05 00:49:02;;;;;;;18.73;9.75;;;6.70;63.50;;;;;;1725065;83;21306;-71
2021/03/05 00:51:31;;;;;;;21.62;10.70;;;6.60;65.20;;;;;;1728916;83;21172;-69
2021/03/05 00:54:00;;;;;;;21.48;11.00;;;6.60;65.50;;;;;;1725629;83;21125;-69
2021/03/05 00:56:28;;;;;;;23.92;11.88;;;6.60;64.90;;;;;;1725478;83;21358;-71
2021/03/05 00:58:57;;;;;;;24.85;11.95;;;6.50;64.10;;;;;;1700334;82;21623;-70
2021/03/05 01:01:26;;;;;;;26.55;13.13;;;6.60;64.60;;;;;;1698851;84;21168;-70
2021/03/05 01:03:55;;;;;;;23.50;11.68;;;6.70;64.70;;;;;;1698892;84;21129;-70
2021/03/05 01:06:31;;;;;;;23.80;10.55;;;6.70;64.80;;;;;;1698359;84;21169;-71
2021/03/05 01:09:00;;;;;;;20.88;11.65;;;6.70;64.30;;;;;;1699139;84;21564;-70
2021/03/05 01:11:31;;;;;;;24.07;11.55;;;6.60;63.70;;;;;;1702642;83;21156;-71
2021/03/05 01:14:04;;;;;;;24.12;11.80;;;6.50;63.60;;;;;;1717944;83;21121;-72
2021/03/05 01:16:32;;;;;;;23.27;12.13;;;6.40;64.60;;;;;;1699686;83;21183;-72
2021/03/05 01:19:07;;;;;;;30.82;12.82;;;6.40;64.30;;;;;;1700847;84;21329;-72
2021/03/05 01:21:36;;;;;;;25.55;13.05;;;6.30;64.90;;;;;;1700837;84;21180;-73
2021/03/05 01:24:08;;;;;;;25.20;13.10;;;6.20;65.60;;;;;;1700569;84;21136;-73
2021/03/05 01:26:40;;;;;;;24.07;11.95;;;6.30;65.90;;;;;;1698837;84;21124;-73
2021/03/05 01:29:16;;;;;;;21.42;10.23;;;6.20;66.10;;;;;;1697792;84;21219;-72
2021/03/05 01:31:44;;;;;;;18.23;9.33;;;6.30;66.00;;;;;;1695310;84;21756;-73
2021/03/05 01:34:14;;;;;;;18.60;9.25;;;6.20;65.40;;;;;;1695312;84;21326;-72
2021/03/05 01:36:45;;;;;;;14.65;7.15;;;6.10;65.80;;;;;;1695411;85;21282;-73
2021/03/05 01:39:15;;;;;;;17.98;7.10;;;6.10;66.60;;;;;;1694917;85;21607;-73
2021/03/05 01:41:43;;;;;;;11.97;6.10;;;6.10;65.90;;;;;;1695490;85;21199;-74
2021/03/05 01:44:13;;;;;;;12.07;6.33;;;6.10;66.70;;;;;;1695299;84;21313;-73
2021/03/05 01:46:42;;;;;;;13.83;6.60;;;6.10;66.40;;;;;;1695586;85;21600;-74
2021/03/05 01:49:10;;;;;;;13.70;7.15;;;6.20;65.90;;;;;;1695396;84;21302;-74
2021/03/05 01:51:39;;;;;;;16.80;7.37;;;6.20;66.20;;;;;;1695481;85;21176;-74
2021/03/05 01:54:08;;;;;;;15.40;6.70;;;6.30;65.30;;;;;;1695475;84;21196;-73
2021/03/05 01:56:41;;;;;;;12.75;6.83;;;6.40;65.90;;;;;;1695448;85;21180;-73
2021/03/05 01:59:12;;;;;;;15.38;8.08;;;6.40;64.80;;;;;;1695185;85;21321;-73
2021/03/05 02:01:42;;;;;;;18.35;8.05;;;6.50;64.00;;;;;;1695262;85;21323;-74
2021/03/05 02:04:13;;;;;;;19.35;8.00;;;6.50;63.90;;;;;;1695392;85;21306;-73
2021/03/05 02:06:43;;;;;;;21.62;11.57;;;6.50;64.40;;;;;;1695184;85;21172;-74
2021/03/05 02:09:11;;;;;;;23.10;11.78;;;6.50;65.00;;;;;;1695371;85;21305;-73
2021/03/05 02:11:39;;;;;;;18.92;9.98;;;6.50;65.40;;;;;;1695270;84;21302;-74
2021/03/05 02:14:10;;;;;;;18.02;9.53;;;6.40;64.20;;;;;;1695480;84;21717;-73
2021/03/05 02:17:10;;;;;;;18.50;8.90;;;6.50;64.40;;;;;;1695497;85;21602;-73
2021/03/05 02:20:26;;;;;;;19.40;9.18;;;6.40;64.20;;;;;;1694717;85;21155;-74
2021/03/05 02:23:43;;;;;;;19.48;9.55;;;6.20;64.80;;;;;;1695338;84;21141;-73
2021/03/05 02:26:38;;;;;;;18.02;9.10;;;6.30;65.30;;;;;;1695441;85;21196;-73
2021/03/05 02:29:14;;;;;;;20.35;9.40;;;6.10;66.00;;;;;;1689378;83;21183;-74
2021/03/05 02:31:46;;;;;;;18.82;9.65;;;6.00;67.50;;;;;;1698253;84;21740;-72
2021/03/05 02:34:22;;;;;;;19.57;9.65;;;6.00;67.60;;;;;;1698195;84;21120;-71
2021/03/05 02:37:11;;;;;;;20.75;9.28;;;6.10;67.50;;;;;;1698046;84;21197;-71
2021/03/05 02:39:44;;;;;;;17.80;9.30;;;6.20;68.10;;;;;;1698058;84;21278;-71
2021/03/05 02:42:57;;;;;;;17.67;9.83;;;6.10;68.20;;;;;;1698201;84;21298;-72
2021/03/05 02:45:39;;;;;;;19.80;9.63;;;6.10;67.90;;;;;;1698038;84;21116;-71
2021/03/05 02:48:19;;;;;;;18.48;9.83;;;6.20;67.90;;;;;;1698026;84;21144;-69
2021/03/05 02:50:55;;;;;;;19.62;9.60;;;6.10;67.80;;;;;;1697335;84;21176;-70
2021/03/05 02:53:26;;;;;;;24.50;10.90;;;6.20;68.00;;;;;;1698023;84;21164;-72
2021/03/05 02:55:59;;;;;;;28.90;14.50;;;6.30;67.40;;;;;;1698124;84;21121;-73
2021/03/05 02:58:30;;;;;;;31.50;15.25;;;6.30;67.40;;;;;;1697985;84;21144;-72
2021/03/05 03:01:01;;;;;;;33.02;15.72;;;6.50;66.90;;;;;;1698025;84;21151;-71
2021/03/05 03:03:30;;;;;;;39.55;18.00;;;6.60;65.90;;;;;;1698090;84;21697;-71
2021/03/05 03:05:59;;;;;;;39.88;19.20;;;6.50;66.10;;;;;;1698081;84;21314;-70
2021/03/05 03:08:37;;;;;;;38.17;18.40;;;6.50;66.20;;;;;;1697998;84;21155;-74
2021/03/05 03:11:06;;;;;;;32.03;15.88;;;6.40;66.80;;;;;;1698170;84;21180;-71
2021/03/05 03:13:37;;;;;;;24.72;13.58;;;6.30;68.10;;;;;;1697998;84;21175;-71
2021/03/05 03:16:08;;;;;;;32.45;13.13;;;6.30;68.80;;;;;;1698352;84;21195;-73
2021/03/05 03:18:39;;;;;;;24.87;12.13;;;6.20;68.20;;;;;;1697956;84;21155;-73
2021/03/05 03:21:08;;;;;;;32.15;14.90;;;6.30;68.70;;;;;;1698017;84;21192;-73
2021/03/05 03:23:39;;;;;;;31.27;16.00;;;6.30;68.30;;;;;;1698643;84;21168;-74
2021/03/05 03:26:09;;;;;;;33.92;16.52;;;6.40;67.50;;;;;;1698018;84;21152;-74
2021/03/05 03:28:37;;;;;;;29.52;15.68;;;6.40;67.60;;;;;;1698439;84;21167;-74
2021/03/05 03:31:07;;;;;;;32.48;16.70;;;6.30;67.90;;;;;;1698362;84;21338;-75
2021/03/05 03:33:36;;;;;;;31.15;14.15;;;6.40;67.70;;;;;;1698202;84;21310;-74
2021/03/05 03:36:07;;;;;;;32.83;15.35;;;6.30;67.70;;;;;;1698063;84;21168;-73
2021/03/05 03:38:36;;;;;;;22.25;11.48;;;6.20;68.20;;;;;;1698062;84;21204;-74
2021/03/05 03:41:05;;;;;;;24.82;11.55;;;6.20;69.10;;;;;;1697934;84;21178;-73
2021/03/05 03:43:33;;;;;;;30.50;12.70;;;6.30;69.00;;;;;;1698430;84;21198;-73
2021/03/05 03:46:06;;;;;;;23.90;12.90;;;6.30;69.00;;;;;;1698532;84;21194;-74
2021/03/05 03:48:40;;;;;;;22.27;10.60;;;6.20;68.80;;;;;;1698330;84;21152;-74
2021/03/05 03:51:13;;;;;;;21.12;10.23;;;6.20;69.60;;;;;;1697597;84;21290;-73
2021/03/05 03:53:46;;;;;;;20.62;8.90;;;6.20;69.10;;;;;;1698419;84;21172;-73
2021/03/05 03:56:15;;;;;;;18.30;10.08;;;6.20;69.50;;;;;;1698372;84;21727;-74
2021/03/05 03:58:51;;;;;;;20.82;9.98;;;6.30;69.60;;;;;;1697044;84;21172;-73
2021/03/05 04:01:21;;;;;;;24.87;13.45;;;6.20;69.80;;;;;;1698309;84;21372;-73
2021/03/05 04:03:53;;;;;;;25.52;12.95;;;6.30;69.50;;;;;;1698237;84;21301;-73
2021/03/05 04:06:26;;;;;;;29.48;13.93;;;6.30;69.40;;;;;;1698077;84;21302;-74
2021/03/05 04:08:58;;;;;;;28.92;15.45;;;6.40;68.70;;;;;;1697960;84;21152;-73
2021/03/05 04:11:27;;;;;;;32.48;16.05;;;6.30;69.10;;;;;;1697964;84;21129;-73
2021/03/05 04:13:56;;;;;;;29.27;13.05;;;6.20;69.50;;;;;;1698102;84;21152;-74
2021/03/05 04:16:25;;;;;;;30.17;14.60;;;6.10;70.60;;;;;;1698005;84;21203;-73
2021/03/05 04:18:53;;;;;;;37.98;18.55;;;6.20;69.80;;;;;;1698037;84;21306;-73
2021/03/05 04:21:27;;;;;;;35.45;16.37;;;6.40;68.80;;;;;;1697975;84;21132;-74
2021/03/05 04:23:55;;;;;;;37.40;18.45;;;6.40;68.90;;;;;;1685234;84;21313;-74
2021/03/05 04:26:24;;;;;;;29.40;13.58;;;6.40;69.30;;;;;;1698491;84;21314;-74
2021/03/05 04:28:52;;;;;;;28.00;13.50;;;6.30;69.70;;;;;;1698349;84;21180;-73
2021/03/05 04:31:20;;;;;;;32.53;15.03;;;6.20;69.70;;;;;;1695461;83;21183;-74
2021/03/05 04:33:49;;;;;;;28.38;15.13;;;6.20;70.30;;;;;;1695371;84;21720;-74
2021/03/05 04:36:17;;;;;;;31.50;14.70;;;6.10;70.50;;;;;;1695325;85;21169;-73
2021/03/05 04:38:47;;;;;;;29.20;14.50;;;6.20;69.70;;;;;;1693195;85;21311;-72
2021/03/05 04:41:15;;;;;;;29.10;12.47;;;6.30;69.70;;;;;;1695502;85;21303;-74
2021/03/05 04:43:43;;;;;;;24.72;12.33;;;6.30;69.00;;;;;;1695814;84;21639;-73
2021/03/05 04:46:14;;;;;;;31.30;14.90;;;6.30;69.40;;;;;;1695429;85;21282;-73
2021/03/05 04:48:44;;;;;;;24.67;11.83;;;6.20;69.70;;;;;;1695908;84;21152;-74
2021/03/05 04:51:14;;;;;;;28.20;13.38;;;6.10;70.30;;;;;;1695318;85;21167;-74
2021/03/05 04:53:42;;;;;;;30.72;13.68;;;6.10;71.10;;;;;;1695381;84;21764;-73
2021/03/05 04:56:10;;;;;;;29.35;14.63;;;6.10;70.40;;;;;;1695715;84;21594;-72
2021/03/05 04:58:38;;;;;;;31.23;14.90;;;6.00;70.50;;;;;;1695781;85;21543;-73
2021/03/05 05:01:06;;;;;;;37.23;15.53;;;6.10;70.90;;;;;;1695421;85;21297;-73
2021/03/05 05:03:35;;;;;;;40.38;18.32;;;6.20;70.70;;;;;;1695859;84;21196;-73
2021/03/05 05:06:03;;;;;;;32.65;15.65;;;6.20;71.60;;;;;;1695401;85;21168;-74
2021/03/05 05:08:31;;;;;;;36.33;16.07;;;6.20;71.80;;;;;;1695386;85;21160;-73
2021/03/05 05:11:00;;;;;;;35.25;16.02;;;6.20;70.50;;;;;;1695685;84;21172;-73
2021/03/05 05:13:28;;;;;;;35.40;16.85;;;6.20;71.60;;;;;;1671638;85;21175;-73
2021/03/05 05:15:58;;;;;;;39.88;18.27;;;6.20;71.70;;;;;;1695280;85;21180;-71
2021/03/05 05:18:27;;;;;;;40.55;18.98;;;6.30;71.40;;;;;;1695870;85;21556;-72
2021/03/05 05:20:55;;;;;;;35.13;18.35;;;6.30;70.80;;;;;;1695416;84;21294;-73
2021/03/05 05:23:23;;;;;;;36.53;17.32;;;6.30;70.40;;;;;;1695554;84;21163;-72
2021/03/05 05:25:52;;;;;;;41.50;20.10;;;6.30;70.80;;;;;;1695315;85;21176;-73
2021/03/05 05:28:19;;;;;;;39.63;20.52;;;6.40;70.60;;;;;;1695275;84;21305;-73
2021/03/05 05:30:49;;;;;;;43.87;21.23;;;6.40;70.50;;;;;;1695575;84;21172;-72
2021/03/05 05:33:17;;;;;;;49.55;21.65;;;6.40;70.90;;;;;;1695387;85;21602;-73
2021/03/05 05:35:47;;;;;;;50.33;20.97;;;6.50;70.60;;;;;;1695261;85;21168;-72
2021/03/05 05:38:16;;;;;;;43.42;19.90;;;6.50;70.90;;;;;;1695725;85;21200;-72
2021/03/05 05:40:44;;;;;;;39.70;19.12;;;6.40;70.50;;;;;;1695278;84;21337;-73
2021/03/05 05:43:12;;;;;;;42.30;19.90;;;6.40;71.50;;;;;;1695941;84;21572;-72
2021/03/05 05:45:40;;;;;;;34.48;18.62;;;6.40;70.90;;;;;;1695816;84;21148;-72
2021/03/05 05:48:12;;;;;;;41.77;19.07;;;6.40;71.50;;;;;;1695276;85;21183;-72
2021/03/05 05:50:43;;;;;;;39.27;18.52;;;6.50;71.60;;;;;;1695387;85;21590;-72
2021/03/05 05:53:14;;;;;;;38.42;18.42;;;6.50;70.70;;;;;;1695470;84;21144;-71
2021/03/05 05:55:42;;;;;;;47.65;22.85;;;6.40;70.60;;;;;;1695343;85;21702;-72
2021/03/05 05:58:10;;;;;;;40.30;19.82;;;6.50;71.10;;;;;;1695834;85;21570;-73
2021/03/05 06:00:41;;;;;;;56.58;23.65;;;6.40;70.50;;;;;;1695561;85;21116;-71
2021/03/05 06:03:09;;;;;;;45.63;21.27;;;6.40;70.60;;;;;;1695295;84;21295;-78
2021/03/05 06:05:38;;;;;;;51.77;22.17;;;6.30;71.70;;;;;;1695931;84;21163;-75
2021/03/05 06:08:08;;;;;;;47.98;21.70;;;6.30;72.10;;;;;;1695147;84;21341;-79
2021/03/05 06:10:36;;;;;;;50.40;23.80;;;6.50;72.00;;;;;;1694520;83;21191;-71
2021/03/05 06:13:04;;;;;;;61.15;26.27;;;6.60;71.60;;;;;;1695404;85;21156;-73
2021/03/05 06:15:32;;;;;;;60.43;26.93;;;6.70;71.20;;;;;;1695173;85;21626;-73
2021/03/05 06:18:01;;;;;;;60.17;26.62;;;6.80;70.70;;;;;;1695090;85;21172;-74
2021/03/05 06:20:46;;;;;;;59.95;25.57;;;6.90;70.70;;;;;;1695197;85;21121;-72
2021/03/05 06:23:15;;;;;;;52.80;25.82;;;6.90;70.70;;;;;;1695095;84;21313;-74
2021/03/05 06:25:44;;;;;;;74.55;30.05;;;6.90;70.80;;;;;;1694916;85;21634;-73
2021/03/05 06:28:18;;;;;;;55.40;27.55;;;7.10;71.10;;;;;;1695291;85;21175;-72
2021/03/05 06:30:46;;;;;;;60.23;28.02;;;7.10;70.80;;;;;;1694929;83;21338;-71
2021/03/05 06:33:31;;;;;;;56.95;27.40;;;7.10;71.70;;;;;;1711503;84;21178;-71
2021/03/05 06:36:19;;;;;;;59.25;28.42;;;7.20;70.90;;;;;;1708694;83;21116;-70
2021/03/05 06:38:56;;;;;;;65.08;30.70;;;7.30;69.80;;;;;;1703426;84;21159;-80
2021/03/05 06:41:31;;;;;;;68.97;31.05;;;7.30;69.90;;;;;;1702860;84;21202;-72
2021/03/05 06:44:02;;;;;;;72.47;31.35;;;7.50;70.50;;;;;;1706366;84;21179;-74
2021/03/05 06:46:40;;;;;;;67.55;30.40;;;7.50;69.70;;;;;;1705499;84;21576;-77
2021/03/05 06:49:13;;;;;;;66.65;32.23;;;7.60;69.10;;;;;;1715231;83;21165;-75
2021/03/05 06:51:56;;;;;;;73.20;33.47;;;7.70;69.30;;;;;;1704662;84;21267;-74
2021/03/05 06:54:34;;;;;;;75.83;34.92;;;7.80;69.10;;;;;;1716659;83;21191;-75
2021/03/05 06:57:04;;;;;;;73.15;32.85;;;8.00;67.30;;;;;;1704762;84;21168;-77
2021/03/05 06:59:44;;;;;;;69.27;34.18;;;8.00;67.60;;;;;;1705483;84;21517;-77
2021/03/05 07:02:16;;;;;;;72.57;34.07;;;8.00;67.70;;;;;;1716658;83;21160;-81
2021/03/05 07:04:51;;;;;;;78.65;34.45;;;8.10;67.40;;;;;;1700348;84;21103;-77
2021/03/05 07:07:22;;;;;;;89.67;35.48;;;8.10;66.60;;;;;;1703277;84;21151;-84
2021/03/05 07:09:57;;;;;;;95.05;35.20;;;8.10;66.90;;;;;;1695730;84;21167;-76
2021/03/05 07:12:26;;;;;;;88.55;36.28;;;8.10;67.40;;;;;;1706170;83;21680;-81
2021/03/05 07:15:11;;;;;;;86.32;35.65;;;8.20;66.60;;;;;;1704976;83;21157;-79
2021/03/05 07:17:39;;;;;;;82.62;36.15;;;8.20;67.00;;;;;;1704968;83;21142;-77
2021/03/05 07:20:12;;;;;;;77.37;36.50;;;8.20;66.90;;;;;;1706164;83;21588;-77
2021/03/05 07:22:43;;;;;;;97.65;38.60;;;8.20;68.00;;;;;;1710688;82;21289;-78
2021/03/05 07:25:17;;;;;;;86.22;38.95;;;8.30;67.30;;;;;;1695123;84;21144;-86
2021/03/05 07:27:50;;;;;;;84.62;37.35;;;8.40;66.90;;;;;;1694703;85;21303;-81
2021/03/05 07:30:23;;;;;;;81.95;37.33;;;8.50;66.20;;;;;;1712646;83;21622;-81
2021/03/05 07:32:58;;;;;;;86.12;39.53;;;8.60;65.50;;;;;;1711061;83;21178;-80
2021/03/05 07:35:40;;;;;;;86.35;38.95;;;8.60;65.60;;;;;;1711476;83;21179;-83
2021/03/05 07:38:12;;;;;;;77.62;37.55;;;8.70;65.00;;;;;;1711264;83;21651;-82
2021/03/05 07:40:44;;;;;;;80.60;36.90;;;8.70;65.20;;;;;;1719786;83;21274;-80
2021/03/05 07:43:16;;;;;;;80.80;38.02;;;8.70;65.40;;;;;;1722805;83;21151;-76
2021/03/05 07:45:44;;;;;;;83.72;38.28;;;8.90;65.50;;;;;;1728364;82;21357;-77
2021/03/05 07:48:15;;;;;;;90.85;38.35;;;9.10;65.10;;;;;;1722848;83;21190;-76
2021/03/05 07:50:44;;;;;;;76.00;37.67;;;9.20;64.10;;;;;;1715193;83;21148;-79
2021/03/05 07:53:13;;;;;;;88.52;39.35;;;9.30;63.50;;;;;;1711100;83;21162;-76
2021/03/05 07:55:43;;;;;;;76.40;39.30;;;9.30;63.60;;;;;;1713235;82;21142;-77
2021/03/05 07:58:34;;;;;;;84.55;40.25;;;9.40;63.20;;;;;;1697703;84;21115;-72
2021/03/05 08:01:05;;;;;;;83.33;41.00;;;9.50;62.30;;;;;;1709064;83;21150;-76
2021/03/05 08:03:55;;;;;;;88.15;41.13;;;9.60;63.30;;;;;;1702943;83;21149;-75
2021/03/05 08:06:30;;;;;;;84.13;41.15;;;9.60;62.30;;;;;;1701959;84;21158;-79
2021/03/05 08:09:09;;;;;;;96.37;43.80;;;9.70;61.80;;;;;;1696836;84;21166;-72
2021/03/05 08:11:39;;;;;;;;;;;9.70;61.80;;;;;;1704630;84;21597;-74
2021/03/05 08:14:24;;;;;;;87.33;40.88;;;9.70;61.00;;;;;;1721545;83;20160;-70
2021/03/05 08:16:53;;;;;;;80.87;40.50;;;9.80;60.70;;;;;;1705751;83;21160;-70
2021/03/05 08:19:27;;;;;;;91.00;42.90;;;10.00;60.30;;;;;;1709763;83;21160;-68
2021/03/05 08:22:02;;;;;;;92.75;42.85;;;10.10;61.40;;;;;;1703676;83;21182;-71
2021/03/05 08:24:41;;;;;;;89.95;40.95;;;10.30;59.80;;;;;;1705571;83;21145;-69
2021/03/05 08:27:37;;;;;;;76.70;38.83;;;10.40;59.10;;;;;;1697648;83;21551;-71
2021/03/05 08:30:12;;;;;;;77.55;39.55;;;10.50;58.70;;;;;;1696308;83;21112;-71
2021/03/05 08:32:57;;;;;;;80.22;38.95;;;10.60;58.20;;;;;;1693645;83;21188;-72
2021/03/05 08:35:43;;;;;;;81.08;39.55;;;10.70;57.60;;;;;;1693796;84;21299;-73
2021/03/05 08:38:17;;;;;;;75.20;38.13;;;10.90;57.80;;;;;;1707958;83;21603;-77
2021/03/05 08:40:52;;;;;;;71.67;37.15;;;11.00;56.30;;;;;;1708573;83;21133;-73
2021/03/05 08:43:27;;;;;;;80.38;39.53;;;11.00;56.50;;;;;;1708873;83;21192;-82
2021/03/05 08:46:08;;;;;;;71.70;37.08;;;11.00;56.30;;;;;;1706914;83;21137;-75
2021/03/05 08:48:48;;;;;;;64.55;34.67;;;11.00;56.50;;;;;;1705897;83;21133;-74
2021/03/05 08:51:21;;;;;;;66.30;31.77;;;11.00;56.30;;;;;;1705576;83;21180;-73
2021/03/05 08:53:54;;;;;;;59.03;32.10;;;11.00;55.80;;;;;;1707778;83;21259;-73
2021/03/05 08:56:31;;;;;;;71.77;34.48;;;11.00;55.50;;;;;;1717090;83;21116;-76
2021/03/05 08:59:06;;;;;;;53.02;28.23;;;11.20;55.60;;;;;;1693405;84;21158;-75
2021/03/05 09:01:41;;;;;;;62.13;32.58;;;11.30;55.20;;;;;;1707739;83;21153;-68
2021/03/05 09:04:20;;;;;;;65.05;32.28;;;11.30;55.40;;;;;;1710295;83;21156;-71
2021/03/05 09:06:56;;;;;;;70.40;33.50;;;11.40;55.60;;;;;;1710129;83;21165;-71
2021/03/05 09:09:30;;;;;;;62.58;32.45;;;11.60;55.10;;;;;;1713925;83;21187;-72
2021/03/05 09:12:13;;;;;;;72.25;34.33;;;11.60;55.00;;;;;;1710165;83;21146;-71
2021/03/05 09:14:48;;;;;;;56.25;31.93;;;11.70;55.40;;;;;;1710854;83;21174;-69
2021/03/05 09:17:18;;;;;;;67.95;34.55;;;11.80;55.90;;;;;;1713947;83;21542;-69
2021/03/05 09:19:47;;;;;;;70.90;36.00;;;11.80;55.80;;;;;;1715480;83;21187;-72
2021/03/05 09:22:26;;;;;;;70.97;36.30;;;11.80;55.60;;;;;;1711741;83;21187;-70
2021/03/05 09:25:06;;;;;;;80.92;36.88;;;11.80;56.70;;;;;;1701645;84;21593;-73
2021/03/05 09:27:41;;;;;;;68.52;35.30;;;11.80;55.70;;;;;;1711447;83;21580;-74
2021/03/05 09:30:22;;;;;;;66.47;34.75;;;11.90;55.10;;;;;;1710579;84;21577;-72
2021/03/05 09:32:55;;;;;;;68.85;37.10;;;11.90;54.80;;;;;;1711166;83;21115;-70
2021/03/05 09:35:29;;;;;;;62.25;34.58;;;11.90;54.80;;;;;;1712084;83;21146;-69
2021/03/05 09:37:58;;;;;;;67.37;33.80;;;11.90;55.70;;;;;;1710654;83;21158;-67
2021/03/05 09:40:29;;;;;;;62.00;32.55;;;11.90;54.90;;;;;;1713478;83;21281;-70
2021/03/05 09:43:00;;;;;;;68.83;34.40;;;11.90;55.80;;;;;;1697823;84;21192;-68
2021/03/05 09:45:47;;;;;;;66.77;35.35;;;11.80;55.50;;;;;;1697693;84;21132;-69
2021/03/05 09:48:30;;;;;;;79.82;36.77;;;11.90;55.30;;;;;;1711301;83;21135;-70
2021/03/05 09:51:03;;;;;;;70.62;36.70;;;11.90;55.50;;;;;;1711834;83;21186;-70
2021/03/05 09:53:34;;;;;;;76.82;38.67;;;11.90;55.70;;;;;;1714004;83;21163;-69
2021/03/05 09:56:09;;;;;;;80.62;40.23;;;12.00;56.10;;;;;;1713457;83;21613;-72
2021/03/05 09:58:37;;;;;;;88.40;45.08;;;12.00;56.30;;;;;;1703200;84;21170;-73
2021/03/05 10:01:05;;;;;;;84.42;43.13;;;12.00;56.10;;;;;;1699926;84;21135;-73
2021/03/05 10:03:33;;;;;;;95.57;47.33;;;12.10;56.60;;;;;;1706949;83;21139;-72
2021/03/05 10:06:01;;;;;;;85.22;44.90;;;12.10;56.80;;;;;;1704780;83;21140;-71
2021/03/05 10:08:31;;;;;;;96.53;47.70;;;12.10;56.90;;;;;;1706515;83;21326;-70
2021/03/05 10:11:08;;;;;;;91.55;50.73;;;12.10;57.00;;;;;;1711683;82;21103;-72
2021/03/05 10:13:54;;;;;;;95.32;48.68;;;12.20;57.40;;;;;;1711323;83;21159;-71
2021/03/05 10:16:30;;;;;;;97.15;47.78;;;12.20;57.40;;;;;;1712196;83;21572;-68
2021/03/05 10:19:08;;;;;;;;;;;12.20;57.70;;;;;;1716556;83;21167;-68
2021/03/05 10:21:51;;;;;;;94.60;48.00;;;12.20;57.80;;;;;;1713659;83;20492;-69
2021/03/05 10:24:29;;;;;;;92.47;48.87;;;12.30;57.80;;;;;;1710093;83;21151;-70
2021/03/05 10:27:11;;;;;;;98.12;48.58;;;12.30;58.20;;;;;;1710175;83;21186;-69
2021/03/05 10:29:57;;;;;;;95.87;49.20;;;12.30;59.20;;;;;;1712415;83;21596;-70
2021/03/05 10:32:29;;;;;;;95.83;49.53;;;12.30;59.00;;;;;;1710864;83;21161;-71
2021/03/05 10:35:04;;;;;;;89.92;47.70;;;12.40;59.90;;;;;;1712876;83;21366;-69
2021/03/05 10:37:33;;;;;;;94.97;46.77;;;12.50;59.50;;;;;;1710859;83;21158;-73
2021/03/05 10:40:09;;;;;;;86.45;45.10;;;12.50;59.90;;;;;;1713262;83;21178;-72
2021/03/05 10:42:37;;;;;;;93.00;45.55;;;12.60;60.40;;;;;;1712024;83;21162;-72
2021/03/05 10:45:07;;;;;;;92.12;44.75;;;12.70;59.50;;;;;;1711409;83;21602;-71
2021/03/05 10:47:35;;;;;;;92.50;45.67;;;12.70;59.10;;;;;;1711869;83;21157;-69
2021/03/05 10:50:06;;;;;;;87.55;44.83;;;12.80;59.30;;;;;;1713327;83;21166;-70
2021/03/05 10:52:34;;;;;;;82.80;44.20;;;12.90;59.80;;;;;;1681936;84;21637;-71
2021/03/05 10:55:05;;;;;;;76.62;41.05;;;13.00;59.10;;;;;;1704947;83;21610;-70
2021/03/05 10:57:33;;;;;;;80.57;42.53;;;13.10;58.80;;;;;;1704070;84;21166;-70
2021/03/05 11:00:01;;;;;;;80.87;41.15;;;13.20;58.50;;;;;;1710413;83;21283;-72
2021/03/05 11:02:32;;;;;;;70.30;37.13;;;13.30;58.70;;;;;;1693513;84;21191;-75
2021/03/05 11:05:01;;;;;;;70.95;38.60;;;13.40;58.40;;;;;;1707319;83;21156;-73
2021/03/05 11:07:29;;;;;;;75.40;37.53;;;13.50;58.40;;;;;;1705166;83;21275;-72
2021/03/05 11:09:59;;;;;;;76.12;38.23;;;13.60;57.80;;;;;;1705430;83;21148;-74
2021/03/05 11:12:27;;;;;;;69.80;36.50;;;13.60;57.30;;;;;;1707909;83;21189;-74
2021/03/05 11:14:55;;;;;;;66.77;36.42;;;13.70;57.20;;;;;;1706933;83;21192;-73
2021/03/05 11:17:23;;;;;;;65.97;35.48;;;13.80;56.90;;;;;;1707392;83;21156;-72
2021/03/05 11:19:57;;;;;;;63.25;33.10;;;13.80;56.70;;;;;;1713974;83;21127;-75
2021/03/05 11:22:25;;;;;;;72.97;38.40;;;13.90;56.50;;;;;;1697567;84;21789;-74
2021/03/05 11:24:53;;;;;;;72.87;36.15;;;14.00;56.50;;;;;;1708390;83;21175;-74
2021/03/05 11:27:21;;;;;;;66.62;34.10;;;14.00;56.50;;;;;;1703700;82;21174;-75
2021/03/05 11:29:49;;;;;;;59.00;29.82;;;14.10;56.60;;;;;;1705005;82;21581;-76
2021/03/05 11:32:17;;;;;;;65.37;31.23;;;14.20;56.20;;;;;;1701809;83;21625;-74
2021/03/05 11:34:47;;;;;;;57.60;30.32;;;14.30;55.90;;;;;;1704692;83;21214;-73
2021/03/05 11:37:17;;;;;;;59.80;29.63;;;14.40;55.70;;;;;;1703114;84;21188;-75
2021/03/05 11:39:45;;;;;;;54.73;27.45;;;14.40;55.30;;;;;;1706749;83;21145;-72
2021/03/05 11:42:13;;;;;;;51.80;26.20;;;14.50;54.40;;;;;;1735725;82;21134;-72
2021/03/05 11:44:41;;;;;;;56.10;25.88;;;14.60;53.60;;;;;;1706356;83;21113;-71
2021/03/05 11:47:10;;;;;;;69.87;27.82;;;14.70;53.40;;;;;;1704496;83;21588;-73
2021/03/05 11:49:43;;;;;;;49.20;25.57;;;14.70;53.90;;;;;;1706125;83;21153;-73
2021/03/05 11:52:11;;;;;;;51.60;25.52;;;14.80;53.60;;;;;;1706176;83;21705;-75
2021/03/05 11:54:40;;;;;;;47.38;23.80;;;14.80;53.60;;;;;;1718328;83;21284;-76
2021/03/05 11:57:08;;;;;;;52.33;23.60;;;14.80;52.80;;;;;;1697194;83;21666;-77
2021/03/05 11:59:39;;;;;;;46.70;22.98;;;14.70;52.70;;;;;;1697180;83;21173;-76
2021/03/05 12:02:07;;;;;;;49.10;24.23;;;14.80;52.90;;;;;;1707165;83;21310;-73
2021/03/05 12:04:35;;;;;;;47.75;23.90;;;14.80;52.50;;;;;;1711377;83;21314;-71
2021/03/05 12:07:03;;;;;;;51.75;24.35;;;14.70;52.70;;;;;;1710057;83;21151;-77
2021/03/05 12:09:32;;;;;;;52.30;25.48;;;14.70;52.40;;;;;;1707529;83;21170;-77
2021/03/05 12:12:02;;;;;;;45.38;21.77;;;14.60;52.30;;;;;;1705772;83;21191;-76
2021/03/05 12:14:32;;;;;;;47.95;23.90;;;14.60;52.90;;;;;;1706542;83;21596;-75
2021/03/05 12:17:00;;;;;;;49.50;22.00;;;14.60;52.40;;;;;;1712409;83;21622;-78
2021/03/05 12:19:33;;;;;;;31.70;16.97;;;14.60;51.30;;;;;;1703009;83;21550;-74
2021/03/05 12:22:01;;;;;;;31.10;16.02;;;14.60;48.60;;;;;;1706649;83;21220;-77
2021/03/05 12:24:29;;;;;;;36.15;15.90;;;14.50;48.70;;;;;;1705265;83;21612;-79
2021/03/05 12:26:57;;;;;;;34.78;15.75;;;14.40;48.90;;;;;;1707351;83;21137;-77
2021/03/05 12:29:30;;;;;;;27.07;11.78;;;14.50;49.90;;;;;;1707829;83;21319;-75
2021/03/05 12:31:58;;;;;;;18.35;9.65;;;14.40;44.90;;;;;;1705878;83;21361;-73
2021/03/05 12:34:26;;;;;;;17.67;8.50;;;14.40;43.60;;;;;;1705734;83;21271;-71
2021/03/05 12:36:55;;;;;;;13.95;6.72;;;14.30;43.60;;;;;;1705387;83;21638;-72
2021/03/05 12:39:23;;;;;;;18.50;8.03;;;14.20;43.10;;;;;;1705623;83;21144;-76
2021/03/05 12:41:52;;;;;;;16.50;8.10;;;14.10;43.10;;;;;;1707094;83;21278;-69
2021/03/05 12:44:21;;;;;;;17.23;8.03;;;14.20;43.90;;;;;;1705196;83;21216;-74
2021/03/05 12:46:52;;;;;;;17.55;7.30;;;14.10;43.10;;;;;;1706225;83;21777;-72
2021/03/05 12:49:21;;;;;;;13.55;7.05;;;14.00;43.10;;;;;;1707638;83;21274;-71
2021/03/05 12:51:50;;;;;;;16.57;7.42;;;13.90;43.20;;;;;;1706924;83;21144;-71
2021/03/05 12:54:20;;;;;;;13.03;7.03;;;13.80;43.50;;;;;;1698638;83;21149;-68
2021/03/05 12:56:48;;;;;;;15.55;6.80;;;13.80;44.20;;;;;;1706284;83;21153;-69
2021/03/05 12:59:16;;;;;;;15.10;7.42;;;13.70;43.90;;;;;;1704598;83;21162;-69
2021/03/05 13:01:44;;;;;;;14.47;7.87;;;13.80;44.10;;;;;;1702861;83;21184;-69